Time;durP1;ratioP1;P1;durP2;ratioP2;P2;SDS_P1;SDS_P2;PMS_P1;PMS_P2;Temp;Humidity;BMP_temperature;BMP_pressure;BME280_temperature;BME280_humidity;BME280_pressure;Samples;Min_cycle;Max_cycle;Signal;HPM_P1;HPM_P2
2021/09/02 00:00:33;;;;;;;0.40;0.20;;;;;;;12.46;100.00;101234.31;4988565;28;20481;-57
2021/09/02 00:03:01;;;;;;;0.40;0.30;;;;;;;12.33;100.00;101238.13;4994838;28;20477;-57
2021/09/02 00:05:29;;;;;;;0.40;0.20;;;;;;;12.38;100.00;101252.28;4965185;28;20453;-55
2021/09/02 00:07:56;;;;;;;1.03;0.87;;;;;;;12.39;100.00;101248.69;4982201;28;20893;-55
2021/09/02 00:10:23;;;;;;;0.40;0.20;;;;;;;12.43;100.00;101258.38;4982064;28;20459;-54
2021/09/02 00:12:50;;;;;;;0.73;0.73;;;;;;;12.55;100.00;101250.13;4994842;28;20982;-53
2021/09/02 00:15:17;;;;;;;0.80;0.80;;;;;;;12.71;100.00;101253.34;4994049;28;20965;-53
2021/09/02 00:17:44;;;;;;;0.40;0.20;;;;;;;12.33;100.00;101249.69;4982549;28;20481;-53
2021/09/02 00:20:12;;;;;;;1.90;0.77;;;;;;;12.57;100.00;101245.63;4994643;28;20453;-53
2021/09/02 00:22:39;;;;;;;0.30;0.30;;;;;;;12.56;100.00;101241.22;4987661;28;20518;-53
2021/09/02 00:25:06;;;;;;;0.53;0.53;;;;;;;12.45;100.00;101235.22;4989415;28;20521;-53
2021/09/02 00:27:33;;;;;;;3.33;0.97;;;;;;;12.23;100.00;101231.25;4994843;28;20515;-53
2021/09/02 00:30:01;;;;;;;0.30;0.20;;;;;;;12.19;100.00;101232.22;4981304;28;20521;-53
2021/09/02 00:32:28;;;;;;;0.33;0.23;;;;;;;12.25;100.00;101237.44;4994391;28;20982;-53
2021/09/02 00:34:54;;;;;;;0.30;0.20;;;;;;;12.35;100.00;101237.22;4993437;28;20488;-53
2021/09/02 00:37:21;;;;;;;0.40;0.20;;;;;;;12.20;100.00;101234.88;4982781;28;20959;-53
2021/09/02 00:39:48;;;;;;;0.40;0.20;;;;;;;12.42;100.00;101236.16;4994344;28;20453;-53
2021/09/02 00:42:15;;;;;;;0.30;0.20;;;;;;;12.30;100.00;101231.09;4986490;28;20486;-53
2021/09/02 00:44:46;;;;;;;0.63;0.63;;;;;;;12.14;100.00;101222.53;4971609;28;20949;-53
2021/09/02 00:47:20;;;;;;;2.10;1.63;;;;;;;12.02;100.00;101230.75;4985563;28;20446;-53
2021/09/02 00:49:48;;;;;;;0.40;0.30;;;;;;;11.84;100.00;101226.66;4991026;28;20866;-53
2021/09/02 00:52:18;;;;;;;0.77;0.57;;;;;;;11.67;100.00;101231.41;4993900;28;20508;-53
2021/09/02 00:54:50;;;;;;;1.43;1.43;;;;;;;11.87;100.00;101233.72;4982257;28;20481;-53
2021/09/02 00:57:19;;;;;;;0.37;0.20;;;;;;;11.60;100.00;101236.84;4992915;28;20449;-53
2021/09/02 00:59:48;;;;;;;0.30;0.20;;;;;;;11.84;100.00;101237.31;4993816;28;20919;-53
2021/09/02 01:02:15;;;;;;;0.37;0.20;;;;;;;11.80;100.00;101238.28;4993025;28;20481;-53
2021/09/02 01:04:43;;;;;;;0.57;0.57;;;;;;;11.85;100.00;101235.53;4986984;28;20498;-53
2021/09/02 01:07:10;;;;;;;0.40;0.40;;;;;;;11.88;100.00;101239.91;4987836;28;20525;-54
2021/09/02 01:09:37;;;;;;;0.30;0.20;;;;;;;11.82;100.00;101230.28;4993668;28;20445;-53
2021/09/02 01:12:37;;;;;;;0.30;0.20;;;;;;;11.72;100.00;101233.97;4980648;28;20533;-53
2021/09/02 01:15:05;;;;;;;0.40;0.20;;;;;;;11.58;100.00;101234.22;4993788;28;20484;-53
2021/09/02 01:17:33;;;;;;;0.40;0.40;;;;;;;11.51;100.00;101227.22;4980848;28;20508;-53
2021/09/02 01:20:00;;;;;;;0.40;0.30;;;;;;;11.80;100.00;101221.44;4993651;28;20504;-53
2021/09/02 01:22:28;;;;;;;0.30;0.20;;;;;;;11.69;100.00;101221.59;4988079;28;20995;-52
2021/09/02 01:25:08;;;;;;;0.40;0.30;;;;;;;11.56;100.00;101220.06;4986839;28;20540;-53
2021/09/02 01:27:35;;;;;;;0.30;0.20;;;;;;;11.58;100.00;101213.78;4981882;28;20504;-52
2021/09/02 01:30:06;;;;;;;0.40;0.20;;;;;;;11.62;100.00;101219.06;4980206;28;20457;-52
2021/09/02 01:32:35;;;;;;;0.60;0.60;;;;;;;11.68;100.00;101218.97;4993295;28;20470;-52
2021/09/02 01:35:05;;;;;;;0.40;0.33;;;;;;;11.70;100.00;101219.81;4991116;28;20453;-52
2021/09/02 01:37:50;;;;;;;0.40;0.20;;;;;;;11.73;100.00;101223.28;4983739;28;20449;-52
2021/09/02 01:40:30;;;;;;;0.40;0.40;;;;;;;11.53;100.00;101217.44;4993287;28;20450;-52
2021/09/02 01:42:57;;;;;;;0.40;0.20;;;;;;;11.75;100.00;101215.25;4979922;28;20502;-52
2021/09/02 01:45:24;;;;;;;0.40;0.30;;;;;;;11.81;100.00;101217.84;4992977;28;20544;-52
2021/09/02 01:47:55;;;;;;;0.30;0.30;;;;;;;11.82;100.00;101219.63;4980289;28;20458;-55
2021/09/02 01:50:23;;;;;;;0.30;0.20;;;;;;;11.66;100.00;101215.44;4993106;28;20500;-52
2021/09/02 01:52:53;;;;;;;0.67;0.67;;;;;;;11.53;100.00;101214.78;4990782;28;20477;-52
2021/09/02 01:55:21;;;;;;;0.37;0.20;;;;;;;11.27;100.00;101217.88;4983464;28;20473;-52
2021/09/02 01:57:49;;;;;;;0.97;0.97;;;;;;;11.32;100.00;101220.47;4988827;28;20458;-52
2021/09/02 02:00:18;;;;;;;0.40;0.20;;;;;;;11.34;100.00;101216.88;4983673;28;20484;-52
2021/09/02 02:02:45;;;;;;;0.83;0.83;;;;;;;11.37;100.00;101216.81;4992663;28;20484;-52
2021/09/02 02:05:13;;;;;;;0.30;0.20;;;;;;;11.36;100.00;101219.50;4982445;28;20841;-52
2021/09/02 02:07:41;;;;;;;1.90;0.47;;;;;;;11.09;100.00;101219.03;4990801;28;20481;-53
2021/09/02 02:10:16;;;;;;;0.30;0.20;;;;;;;11.07;100.00;101219.97;4992868;28;20507;-52
2021/09/02 02:12:43;;;;;;;1.70;1.63;;;;;;;11.19;100.00;101210.00;4979688;28;20986;-52
2021/09/02 02:15:11;;;;;;;0.40;0.37;;;;;;;11.17;100.00;101216.28;4992838;28;20453;-52
2021/09/02 02:17:39;;;;;;;0.40;0.30;;;;;;;11.18;100.00;101216.25;4979979;28;20450;-53
2021/09/02 02:20:07;;;;;;;0.40;0.40;;;;;;;10.93;100.00;101217.53;4993018;28;20858;-54
2021/09/02 02:22:34;;;;;;;2.00;0.77;;;;;;;11.01;100.00;101215.63;4980121;28;20520;-53
2021/09/02 02:25:02;;;;;;;0.83;0.83;;;;;;;11.01;100.00;101220.09;4979945;28;20498;-52
2021/09/02 02:27:30;;;;;;;0.40;0.20;;;;;;;11.11;100.00;101209.28;4992800;28;20480;-52
2021/09/02 02:29:57;;;;;;;0.30;0.20;;;;;;;11.17;100.00;101216.28;4991901;28;20477;-53
2021/09/02 02:32:24;;;;;;;0.30;0.20;;;;;;;10.90;100.00;101212.25;4980734;28;20481;-52
2021/09/02 02:34:51;;;;;;;0.30;0.20;;;;;;;10.74;100.00;101213.41;4992673;28;20496;-52
2021/09/02 02:37:18;;;;;;;4.77;0.73;;;;;;;10.73;100.00;101207.19;4984987;28;20509;-52
2021/09/02 02:39:45;;;;;;;0.47;0.47;;;;;;;11.00;100.00;101215.66;4974837;28;20450;-52
2021/09/02 02:42:12;;;;;;;0.30;0.20;;;;;;;10.78;100.00;101209.78;4992796;28;20540;-53
2021/09/02 02:44:39;;;;;;;0.30;0.20;;;;;;;10.78;100.00;101207.13;4992570;28;20928;-52
2021/09/02 02:47:07;;;;;;;0.40;0.20;;;;;;;10.64;100.00;101213.50;4984766;28;20451;-53
2021/09/02 02:49:35;;;;;;;0.30;0.20;;;;;;;10.61;100.00;101213.56;4970579;28;20458;-53
2021/09/02 02:52:03;;;;;;;3.20;0.57;;;;;;;10.68;100.00;101209.91;4992732;28;20532;-52
2021/09/02 02:54:31;;;;;;;0.40;0.20;;;;;;;10.76;100.00;101212.47;4980948;28;20449;-53
2021/09/02 02:56:58;;;;;;;0.40;0.30;;;;;;;10.70;100.00;101212.56;4992620;28;20486;-52
2021/09/02 02:59:25;;;;;;;0.30;0.20;;;;;;;10.71;100.00;101213.44;4979661;28;20484;-52
2021/09/02 03:01:52;;;;;;;0.40;0.40;;;;;;;10.53;100.00;101212.78;4992395;28;20481;-52
2021/09/02 03:04:20;;;;;;;0.30;0.20;;;;;;;10.58;100.00;101205.63;4988483;28;20498;-52
2021/09/02 03:06:47;;;;;;;0.30;0.20;;;;;;;10.52;100.00;101213.69;4967136;28;20540;-54
2021/09/02 03:09:14;;;;;;;0.30;0.20;;;;;;;10.61;100.00;101205.59;4995466;28;20946;-52
2021/09/02 03:11:41;;;;;;;1.47;1.37;;;;;;;10.43;100.00;101204.97;4985337;28;20505;-53
2021/09/02 03:14:08;;;;;;;0.30;0.20;;;;;;;10.59;100.00;101201.19;4994032;28;20441;-53
2021/09/02 03:16:35;;;;;;;0.30;0.20;;;;;;;10.31;100.00;101198.91;4984961;28;20527;-53
2021/09/02 03:19:01;;;;;;;0.40;0.30;;;;;;;10.33;100.00;101210.41;4993860;28;20449;-53
2021/09/02 03:21:28;;;;;;;0.30;0.30;;;;;;;10.28;100.00;101217.56;4995847;28;20516;-52
2021/09/02 03:23:55;;;;;;;0.30;0.20;;;;;;;10.42;100.00;101213.84;4982504;28;20461;-52
2021/09/02 03:26:22;;;;;;;2.60;2.40;;;;;;;10.40;100.00;101216.50;4978689;28;20487;-52
2021/09/02 03:28:49;;;;;;;0.40;0.40;;;;;;;10.43;100.00;101215.59;4991127;28;20492;-52
2021/09/02 03:31:16;;;;;;;0.30;0.20;;;;;;;10.55;100.00;101208.34;4987258;28;20503;-53
2021/09/02 03:33:43;;;;;;;0.30;0.30;;;;;;;10.37;100.00;101216.53;4995615;28;20473;-53
2021/09/02 03:36:10;;;;;;;0.30;0.20;;;;;;;10.26;100.00;101214.00;4967322;28;20450;-53
2021/09/02 03:38:37;;;;;;;0.30;0.20;;;;;;;10.29;100.00;101214.00;4994256;28;20511;-52
2021/09/02 03:41:04;;;;;;;0.30;0.20;;;;;;;10.47;100.00;101214.66;4995578;28;20496;-53
2021/09/02 03:43:31;;;;;;;0.40;0.40;;;;;;;10.14;100.00;101211.47;4982412;28;20551;-52
2021/09/02 03:45:57;;;;;;;0.30;0.27;;;;;;;10.21;100.00;101215.84;4995426;28;20521;-52
2021/09/02 03:48:24;;;;;;;0.43;0.40;;;;;;;10.16;100.00;101207.03;4982091;28;20942;-52
2021/09/02 03:50:51;;;;;;;0.30;0.20;;;;;;;10.29;100.00;101214.00;4995315;28;20966;-52
2021/09/02 03:53:18;;;;;;;0.30;0.20;;;;;;;10.01;100.00;101213.41;4990176;28;20478;-52
2021/09/02 03:55:45;;;;;;;0.30;0.20;;;;;;;10.14;100.00;101207.94;4989054;28;20474;-53
2021/09/02 03:58:12;;;;;;;0.30;0.20;;;;;;;10.22;100.00;101211.41;4988234;28;20490;-54
2021/09/02 04:00:39;;;;;;;0.30;0.20;;;;;;;10.28;100.00;101216.66;4988996;28;20485;-54
2021/09/02 04:03:06;;;;;;;1.30;1.30;;;;;;;10.11;100.00;101208.84;4982914;28;20469;-53
2021/09/02 04:05:33;;;;;;;0.30;0.20;;;;;;;10.23;100.00;101205.22;4982075;28;20497;-53
2021/09/02 04:08:00;;;;;;;0.30;0.20;;;;;;;10.09;100.00;101206.22;4995115;28;20454;-52
2021/09/02 04:10:27;;;;;;;0.40;0.37;;;;;;;10.17;100.00;101206.13;4993893;28;20449;-53
2021/09/02 04:12:54;;;;;;;0.30;0.20;;;;;;;10.08;100.00;101208.91;4983000;28;21044;-52
2021/09/02 04:15:21;;;;;;;0.30;0.20;;;;;;;9.89;100.00;101208.25;4994900;28;20458;-52
2021/09/02 04:17:48;;;;;;;0.30;0.20;;;;;;;10.09;100.00;101215.97;4987108;28;20537;-52
2021/09/02 04:20:14;;;;;;;3.10;0.67;;;;;;;9.85;100.00;101210.91;4989483;28;20523;-52
2021/09/02 04:22:41;;;;;;;0.30;0.20;;;;;;;10.05;100.00;101214.25;4994590;28;20524;-53
2021/09/02 04:25:09;;;;;;;0.30;0.20;;;;;;;9.97;100.00;101216.97;4981533;28;20937;-52
2021/09/02 04:27:36;;;;;;;0.30;0.20;;;;;;;10.10;100.00;101220.38;4994970;28;20684;-52
2021/09/02 04:30:04;;;;;;;0.30;0.30;;;;;;;9.99;100.00;101209.00;4993408;28;20489;-53
2021/09/02 04:32:31;;;;;;;0.30;0.20;;;;;;;9.85;100.00;101216.22;4966540;28;20473;-52
2021/09/02 04:34:58;;;;;;;1.37;1.17;;;;;;;9.91;100.00;101213.53;4994662;28;20450;-53
2021/09/02 04:37:25;;;;;;;0.30;0.20;;;;;;;10.07;100.00;101216.00;4985990;28;20454;-54
2021/09/02 04:39:52;;;;;;;0.30;0.20;;;;;;;9.91;100.00;101210.88;4990083;28;20492;-52
2021/09/02 04:42:19;;;;;;;0.30;0.20;;;;;;;9.82;100.00;101218.94;4994420;28;21204;-53
2021/09/02 04:44:46;;;;;;;0.30;0.20;;;;;;;9.56;100.00;101220.06;4988787;28;20544;-52
2021/09/02 04:47:13;;;;;;;0.30;0.20;;;;;;;9.53;100.00;101212.13;4985610;28;20446;-52
2021/09/02 04:49:39;;;;;;;0.40;0.40;;;;;;;9.69;100.00;101210.22;4990051;28;20484;-53
2021/09/02 04:52:07;;;;;;;0.30;0.20;;;;;;;9.62;100.00;101216.50;4994083;28;20541;-52
2021/09/02 04:54:33;;;;;;;0.30;0.20;;;;;;;9.65;100.00;101227.94;4982280;28;20481;-52
2021/09/02 04:57:00;;;;;;;0.30;0.20;;;;;;;9.74;100.00;101225.22;4993847;28;20453;-52
2021/09/02 04:59:27;;;;;;;1.30;1.30;;;;;;;9.75;100.00;101221.66;4980844;28;20485;-52
2021/09/02 05:01:54;;;;;;;0.30;0.20;;;;;;;10.14;100.00;101221.22;4976507;28;20481;-53
2021/09/02 05:04:21;;;;;;;0.60;0.57;;;;;;;10.03;100.00;101226.69;4989792;28;20454;-53
2021/09/02 05:06:48;;;;;;;7.00;0.97;;;;;;;10.14;100.00;101224.75;4985700;28;20520;-54
2021/09/02 05:09:15;;;;;;;0.30;0.30;;;;;;;10.17;100.00;101232.72;4993569;28;20512;-55
2021/09/02 05:11:42;;;;;;;0.30;0.20;;;;;;;10.05;100.00;101230.19;4982629;28;20803;-52
2021/09/02 05:14:09;;;;;;;0.30;0.20;;;;;;;10.15;100.00;101230.97;4991916;28;20449;-53
2021/09/02 05:16:36;;;;;;;0.30;0.20;;;;;;;10.30;100.00;101231.69;4982894;28;20480;-52
2021/09/02 05:19:03;;;;;;;1.73;1.73;;;;;;;10.71;100.00;101235.59;4991781;28;20496;-52
2021/09/02 05:21:30;;;;;;;0.30;0.20;;;;;;;11.06;100.00;101239.50;4993519;28;20492;-53
2021/09/02 05:23:57;;;;;;;1.30;1.30;;;;;;;11.40;100.00;101234.53;4980345;28;20497;-52
2021/09/02 05:26:24;;;;;;;0.40;0.40;;;;;;;11.72;100.00;101233.97;4976502;28;20952;-53
2021/09/02 05:28:51;;;;;;;1.60;1.60;;;;;;;11.89;100.00;101234.56;4988913;28;20972;-53
2021/09/02 05:31:18;;;;;;;0.30;0.20;;;;;;;11.96;100.00;101243.34;4984949;28;20526;-53
2021/09/02 05:33:45;;;;;;;0.50;0.50;;;;;;;12.05;100.00;101240.47;4993315;28;20478;-53
2021/09/02 05:36:12;;;;;;;0.30;0.20;;;;;;;12.37;100.00;101242.53;4981651;28;20490;-52
2021/09/02 05:38:38;;;;;;;0.30;0.20;;;;;;;12.66;100.00;101242.78;4992713;28;20477;-52
2021/09/02 05:41:05;;;;;;;1.03;0.60;;;;;;;12.86;100.00;101244.09;4993417;28;20500;-52
2021/09/02 05:43:33;;;;;;;6.63;0.90;;;;;;;13.00;100.00;101240.22;4980133;28;20497;-52
2021/09/02 05:46:00;;;;;;;0.40;0.40;;;;;;;13.20;100.00;101245.13;4986284;28;20563;-52
2021/09/02 05:48:26;;;;;;;0.30;0.20;;;;;;;13.30;99.99;101245.78;4980660;28;20533;-52
2021/09/02 05:50:53;;;;;;;0.30;0.20;;;;;;;13.37;100.00;101242.03;4993522;28;20496;-53
2021/09/02 05:53:21;;;;;;;0.30;0.20;;;;;;;13.40;100.00;101241.94;4987321;28;21039;-53
2021/09/02 05:55:50;;;;;;;0.60;0.60;;;;;;;13.23;100.00;101245.03;4987400;28;20492;-52
2021/09/02 05:58:17;;;;;;;0.40;0.30;;;;;;;13.03;100.00;101253.50;4986176;28;20462;-52
2021/09/02 06:00:44;;;;;;;2.50;2.40;;;;;;;12.92;100.00;101247.53;4987589;28;20453;-52
2021/09/02 06:03:12;;;;;;;0.30;0.20;;;;;;;12.79;100.00;101250.50;4992763;28;20935;-52
2021/09/02 06:05:39;;;;;;;0.30;0.20;;;;;;;12.87;100.00;101244.06;4979720;28;20541;-53
2021/09/02 06:08:06;;;;;;;0.40;0.40;;;;;;;12.97;100.00;101240.28;4992922;28;20521;-52
2021/09/02 06:10:33;;;;;;;0.40;0.40;;;;;;;13.01;100.00;101243.75;4991657;28;20519;-52
2021/09/02 06:13:01;;;;;;;0.40;0.30;;;;;;;12.98;100.00;101241.16;4981594;28;20523;-52
2021/09/02 06:15:29;;;;;;;0.40;0.40;;;;;;;12.93;100.00;101237.72;4990926;28;21027;-52
2021/09/02 06:17:56;;;;;;;0.30;0.20;;;;;;;13.04;100.00;101235.69;4981937;28;20978;-52
2021/09/02 06:20:25;;;;;;;0.30;0.20;;;;;;;13.02;100.00;101241.06;4992926;28;20493;-52
2021/09/02 06:22:53;;;;;;;0.33;0.20;;;;;;;13.01;100.00;101228.63;4983526;28;20529;-51
2021/09/02 06:25:20;;;;;;;0.97;0.97;;;;;;;12.96;100.00;101237.66;4988946;28;20489;-52
2021/09/02 06:27:47;;;;;;;0.30;0.20;;;;;;;12.97;100.00;101242.06;4992889;28;20500;-52
2021/09/02 06:30:14;;;;;;;0.70;0.70;;;;;;;13.00;100.00;101242.00;4979746;28;20457;-53
2021/09/02 06:32:41;;;;;;;0.30;0.20;;;;;;;12.96;100.00;101237.66;4992526;28;20982;-53
2021/09/02 06:35:08;;;;;;;0.30;0.20;;;;;;;13.38;100.00;101243.78;4989058;28;20579;-52
2021/09/02 06:37:35;;;;;;;0.50;0.50;;;;;;;13.74;100.00;101244.66;4983791;28;20445;-53
2021/09/02 06:40:02;;;;;;;0.30;0.20;;;;;;;14.00;100.00;101241.28;4992611;28;20453;-54
2021/09/02 06:42:29;;;;;;;0.50;0.50;;;;;;;13.84;100.00;101240.84;4965162;28;20486;-52
2021/09/02 06:44:56;;;;;;;0.40;0.33;;;;;;;13.73;100.00;101250.91;4976856;28;20867;-52
2021/09/02 06:47:23;;;;;;;0.30;0.20;;;;;;;13.54;100.00;101258.50;4996804;28;20457;-53
2021/09/02 06:49:50;;;;;;;2.37;1.47;;;;;;;13.82;100.00;101253.34;4983821;28;20457;-52
2021/09/02 06:52:17;;;;;;;4.30;1.67;;;;;;;14.17;100.00;101255.06;4996442;28;20595;-53
2021/09/02 06:54:44;;;;;;;2.97;2.77;;;;;;;14.13;100.00;101256.06;5001180;28;20865;-52
2021/09/02 06:57:11;;;;;;;0.40;0.20;;;;;;;14.03;100.00;101245.66;5004048;28;20445;-52
2021/09/02 06:59:37;;;;;;;0.40;0.20;;;;;;;14.12;100.00;101248.97;4982989;28;20473;-52
2021/09/02 07:02:05;;;;;;;4.10;1.30;;;;;;;14.07;100.00;101255.34;4996051;28;20541;-53
2021/09/02 07:04:32;;;;;;;0.40;0.20;;;;;;;14.18;100.00;101245.25;4990537;28;20446;-52
2021/09/02 07:06:59;;;;;;;0.30;0.20;;;;;;;14.52;100.00;101246.03;4988790;28;20488;-52
2021/09/02 07:09:26;;;;;;;0.63;0.60;;;;;;;14.75;100.00;101244.50;4996456;28;20549;-52
2021/09/02 07:11:53;;;;;;;2.10;2.00;;;;;;;14.93;100.00;101245.72;4996094;28;20504;-53
2021/09/02 07:14:19;;;;;;;0.40;0.27;;;;;;;15.03;100.00;101245.38;4983168;28;20809;-53
2021/09/02 07:16:46;;;;;;;5.10;1.23;;;;;;;15.09;100.00;101244.34;4983710;28;21010;-53
2021/09/02 07:19:13;;;;;;;0.40;0.30;;;;;;;15.08;100.00;101240.78;4983081;28;20539;-50
2021/09/02 07:24:11;;;;;;;2.43;2.33;;;;;;;14.86;100.00;101237.00;4955448;29;20494;-52
2021/09/02 07:26:39;;;;;;;2.50;1.50;;;;;;;15.19;100.00;101235.06;4956764;28;20523;-52
2021/09/02 07:29:07;;;;;;;0.40;0.30;;;;;;;15.30;100.00;101224.88;4957030;28;20490;-52
2021/09/02 07:31:36;;;;;;;0.40;0.20;;;;;;;15.49;100.00;101233.19;4953941;28;20455;-52
2021/09/02 07:34:03;;;;;;;0.53;0.53;;;;;;;15.57;100.00;101227.56;4937713;29;20459;-52
2021/09/02 07:36:30;;;;;;;2.97;1.80;;;;;;;15.81;100.00;101231.22;4937718;29;20524;-52
2021/09/02 07:39:09;;;;;;;0.40;0.30;;;;;;;15.86;100.00;101226.56;4937497;29;20459;-52
2021/09/02 07:41:37;;;;;;;0.40;0.20;;;;;;;16.08;100.00;101235.63;4937667;29;20490;-55
2021/09/02 07:44:04;;;;;;;0.40;0.20;;;;;;;16.39;100.00;101242.53;4937558;29;20890;-55
2021/09/02 07:46:31;;;;;;;2.37;2.37;;;;;;;16.40;100.00;101245.16;4937180;29;20535;-55
2021/09/02 07:48:58;;;;;;;0.40;0.30;;;;;;;16.59;100.00;101229.25;4952021;29;20452;-55
2021/09/02 07:51:25;;;;;;;0.40;0.30;;;;;;;16.91;100.00;101236.06;4937275;29;20491;-54
2021/09/02 07:53:52;;;;;;;2.60;2.50;;;;;;;16.86;100.00;101240.75;4936712;29;20504;-54
2021/09/02 07:56:19;;;;;;;0.60;0.60;;;;;;;16.99;100.00;101241.13;4949832;29;20503;-54
2021/09/02 07:58:46;;;;;;;0.50;0.40;;;;;;;17.26;100.00;101240.00;4937312;29;20483;-55
2021/09/02 08:01:14;;;;;;;0.40;0.30;;;;;;;17.43;99.17;101240.22;4937252;29;20504;-55
2021/09/02 08:03:42;;;;;;;0.40;0.20;;;;;;;17.51;99.43;101237.19;4937129;29;20531;-55
2021/09/02 08:06:09;;;;;;;4.40;2.87;;;;;;;17.80;99.17;101235.09;4937052;29;20543;-53
2021/09/02 08:08:35;;;;;;;0.40;0.20;;;;;;;17.63;97.35;101233.97;4937631;29;20452;-52
2021/09/02 08:11:02;;;;;;;0.73;0.50;;;;;;;18.04;96.51;101234.03;4937111;29;20891;-52
2021/09/02 08:13:29;;;;;;;0.40;0.30;;;;;;;17.99;96.22;101228.88;4937022;29;20993;-53
2021/09/02 08:15:56;;;;;;;0.60;0.60;;;;;;;18.07;96.04;101223.13;4937118;29;20452;-53
2021/09/02 08:18:24;;;;;;;0.50;0.50;;;;;;;18.39;95.66;101228.88;4935873;29;20466;-54
2021/09/02 08:20:51;;;;;;;0.43;0.30;;;;;;;18.55;94.58;101225.41;4937021;29;20997;-53
2021/09/02 08:23:18;;;;;;;0.40;0.30;;;;;;;18.47;93.45;101242.84;4936922;29;20480;-52
2021/09/02 08:25:45;;;;;;;0.50;0.50;;;;;;;18.60;92.71;101242.22;4936761;29;20496;-52
2021/09/02 08:28:15;;;;;;;1.80;1.37;;;;;;;18.58;94.46;101241.41;4937195;29;20452;-52
2021/09/02 08:30:42;;;;;;;1.27;1.27;;;;;;;18.77;92.38;101236.06;4936673;29;20507;-53
2021/09/02 08:33:10;;;;;;;0.50;0.40;;;;;;;18.69;91.81;101232.00;4936708;29;20899;-53
2021/09/02 08:35:37;;;;;;;0.40;0.30;;;;;;;18.99;91.91;101233.22;4936716;29;20452;-52
2021/09/02 08:38:08;;;;;;;0.40;0.30;;;;;;;18.99;90.97;101235.94;4936742;29;20502;-53
2021/09/02 08:40:37;;;;;;;0.50;0.47;;;;;;;18.85;91.35;101227.63;4936915;29;20476;-52
2021/09/02 08:43:04;;;;;;;0.40;0.20;;;;;;;19.00;92.59;101229.59;4936696;29;20504;-52
2021/09/02 08:45:31;;;;;;;1.50;0.83;;;;;;;19.06;91.38;101229.31;4936476;29;20460;-53
2021/09/02 08:48:00;;;;;;;0.40;0.20;;;;;;;19.09;91.40;101230.97;4936266;29;20456;-54
2021/09/02 08:50:30;;;;;;;0.40;0.30;;;;;;;19.35;89.79;101221.59;4936702;29;20523;-53
2021/09/02 08:52:59;;;;;;;0.40;0.30;;;;;;;19.68;89.89;101214.50;4936237;29;20507;-53
2021/09/02 08:55:28;;;;;;;0.40;0.30;;;;;;;19.66;89.20;101226.34;4946781;29;20483;-53
2021/09/02 08:57:56;;;;;;;0.50;0.40;;;;;;;19.92;87.71;101220.47;4937962;29;20577;-53
2021/09/02 09:00:25;;;;;;;0.40;0.20;;;;;;;19.81;88.72;101222.84;4936193;29;20494;-53
2021/09/02 09:03:10;;;;;;;0.40;0.30;;;;;;;20.07;87.42;101218.78;4936087;29;20892;-53
2021/09/02 09:05:37;;;;;;;2.67;1.47;;;;;;;19.77;86.91;101216.75;4935791;29;20487;-53
2021/09/02 09:08:10;;;;;;;1.37;1.37;;;;;;;19.80;87.36;101213.00;4936092;29;20452;-52
2021/09/02 09:10:39;;;;;;;0.40;0.30;;;;;;;19.96;87.67;101218.47;4936094;29;20451;-53
2021/09/02 09:13:10;;;;;;;0.40;0.20;;;;;;;20.44;86.46;101214.16;4936071;29;20446;-53
2021/09/02 09:15:38;;;;;;;0.40;0.30;;;;;;;20.51;86.51;101220.94;4935948;29;20423;-53
2021/09/02 09:18:20;;;;;;;0.40;0.20;;;;;;;20.51;84.89;101223.63;4936076;29;20543;-53
2021/09/02 09:21:09;;;;;;;0.73;0.50;;;;;;;20.58;84.79;101233.16;4935825;29;20456;-53
2021/09/02 09:24:06;;;;;;;0.87;0.87;;;;;;;20.52;84.68;101225.38;4937492;29;20463;-52
2021/09/02 09:26:35;;;;;;;6.13;1.90;;;;;;;20.58;84.34;101216.97;4935957;29;20542;-53
2021/09/02 09:29:15;;;;;;;1.27;1.17;;;;;;;20.59;83.81;101213.28;4935715;29;20452;-53
2021/09/02 09:31:42;;;;;;;0.93;0.93;;;;;;;20.65;83.30;101215.63;4935423;29;20427;-53
2021/09/02 09:34:10;;;;;;;0.40;0.30;;;;;;;20.75;82.92;101199.78;4935955;29;20431;-53
2021/09/02 09:36:38;;;;;;;1.23;1.23;;;;;;;20.74;81.75;101203.47;4935595;29;20423;-54
2021/09/02 09:39:09;;;;;;;0.57;0.30;;;;;;;20.67;81.22;101195.69;4935649;29;20452;-53
2021/09/02 09:41:41;;;;;;;0.40;0.20;;;;;;;20.70;81.93;101203.63;4935549;29;21024;-54
2021/09/02 09:44:28;;;;;;;0.50;0.40;;;;;;;20.66;81.91;101199.34;4935359;29;21003;-53
2021/09/02 09:47:04;;;;;;;0.40;0.20;;;;;;;20.99;81.56;101199.28;4935653;29;20500;-53
2021/09/02 09:49:50;;;;;;;0.40;0.20;;;;;;;20.96;80.99;101204.84;4935365;29;20509;-53
2021/09/02 09:52:21;;;;;;;3.03;2.93;;;;;;;20.74;81.93;101204.31;4935545;29;20502;-52
2021/09/02 09:54:49;;;;;;;0.40;0.20;;;;;;;21.02;81.57;101191.94;4936134;29;20498;-52
2021/09/02 09:57:16;;;;;;;0.70;0.70;;;;;;;21.10;80.98;101195.06;4935463;29;20508;-53
2021/09/02 09:59:45;;;;;;;0.40;0.30;;;;;;;21.07;81.33;101189.84;4935508;29;20515;-53
2021/09/02 10:02:12;;;;;;;6.53;1.53;;;;;;;21.12;80.90;101190.47;4940982;29;20876;-53
2021/09/02 10:04:41;;;;;;;0.50;0.30;;;;;;;21.29;80.09;101179.56;4935241;29;20486;-53
2021/09/02 10:07:09;;;;;;;0.83;0.83;;;;;;;21.72;80.95;101180.56;4934989;29;20983;-53
2021/09/02 10:09:36;;;;;;;0.53;0.53;;;;;;;22.13;78.70;101179.88;4922875;29;20490;-53
2021/09/02 10:12:04;;;;;;;0.70;0.70;;;;;;;22.06;77.85;101173.97;4935080;29;20484;-53
2021/09/02 10:14:31;;;;;;;0.47;0.33;;;;;;;21.87;79.52;101167.91;4935082;29;20471;-53
2021/09/02 10:16:58;;;;;;;0.50;0.30;;;;;;;21.66;77.91;101174.66;4947419;28;20433;-53
2021/09/02 10:19:26;;;;;;;1.20;1.00;;;;;;;21.65;79.17;101172.91;4934967;29;20439;-53
2021/09/02 10:21:57;;;;;;;2.20;1.23;;;;;;;21.73;78.65;101159.78;4934978;29;20468;-53
2021/09/02 10:24:39;;;;;;;0.40;0.20;;;;;;;22.03;77.45;101167.84;4935304;29;20426;-52
2021/09/02 10:27:21;;;;;;;11.20;1.07;;;;;;;22.17;78.72;101165.16;4934974;29;20543;-53
2021/09/02 10:29:51;;;;;;;0.50;0.40;;;;;;;22.37;74.87;101163.94;4934983;29;20507;-53
2021/09/02 10:32:24;;;;;;;3.60;1.80;;;;;;;22.55;75.62;101161.88;4934706;29;20555;-53
2021/09/02 10:35:12;;;;;;;1.43;1.33;;;;;;;22.54;74.80;101165.56;4934999;29;20503;-54
2021/09/02 10:37:43;;;;;;;0.40;0.30;;;;;;;22.39;76.14;101153.84;4934415;29;20435;-53
2021/09/02 10:40:15;;;;;;;0.40;0.27;;;;;;;22.23;74.91;101151.25;4934956;29;20430;-53
2021/09/02 10:42:56;;;;;;;0.47;0.40;;;;;;;22.51;70.53;101154.91;4934945;29;20484;-54
2021/09/02 10:45:25;;;;;;;0.80;0.80;;;;;;;22.36;70.61;101146.81;4934752;29;20434;-52
2021/09/02 10:47:54;;;;;;;0.40;0.20;;;;;;;22.68;67.88;101150.13;4934671;29;20474;-53
2021/09/02 10:50:24;;;;;;;0.40;0.30;;;;;;;22.62;68.87;101145.13;4934711;29;20456;-53
2021/09/02 10:52:51;;;;;;;0.40;0.23;;;;;;;22.47;70.30;101138.81;4934537;29;20475;-53
2021/09/02 10:55:41;;;;;;;1.63;1.03;;;;;;;22.60;71.18;101146.16;4944055;29;20502;-52
2021/09/02 10:58:09;;;;;;;0.40;0.30;;;;;;;22.38;72.46;101135.88;4935036;29;20480;-53
2021/09/02 11:00:41;;;;;;;0.60;0.60;;;;;;;22.35;71.63;101138.78;4934777;29;20464;-53
2021/09/02 11:03:15;;;;;;;0.40;0.40;;;;;;;22.67;70.94;101136.69;4923313;29;20453;-53
2021/09/02 11:05:44;;;;;;;0.50;0.40;;;;;;;22.99;68.85;101138.16;4934608;29;20426;-53
2021/09/02 11:08:11;;;;;;;2.10;2.00;;;;;;;22.56;68.13;101139.22;4934593;29;20521;-53
2021/09/02 11:10:38;;;;;;;0.50;0.30;;;;;;;22.87;68.56;101138.09;4934535;29;20916;-54
2021/09/02 11:13:07;;;;;;;0.53;0.53;;;;;;;22.66;68.24;101138.53;4934524;29;20543;-53
2021/09/02 11:15:37;;;;;;;0.50;0.40;;;;;;;22.94;64.87;101136.75;4934643;29;20944;-52
2021/09/02 11:18:06;;;;;;;0.40;0.20;;;;;;;23.06;65.89;101125.06;4934622;29;20419;-53
2021/09/02 11:20:42;;;;;;;3.70;2.00;;;;;;;23.10;65.76;101128.44;4934711;29;20473;-53
2021/09/02 11:23:17;;;;;;;0.40;0.20;;;;;;;23.04;65.55;101117.03;4934435;29;20907;-52
2021/09/02 11:25:44;;;;;;;3.07;0.90;;;;;;;23.31;63.44;101121.56;4942252;29;20457;-53
2021/09/02 11:28:11;;;;;;;2.10;0.60;;;;;;;22.95;63.06;101119.50;4929172;29;20616;-53